Time;durP1;ratioP1;P1;durP2;ratioP2;P2;SDS_P1;SDS_P2;PMS_P1;PMS_P2;Temp;Humidity;BMP_temperature;BMP_pressure;BME280_temperature;BME280_humidity;BME280_pressure;Samples;Min_cycle;Max_cycle;Signal;HPM_P1;HPM_P2
2021/03/14 00:00:53;;;;;;;1.43;0.50;;;;;;;3.95;100.00;98998.50;4997433;28;20262;-80
2021/03/14 00:03:20;;;;;;;1.93;0.50;;;;;;;3.93;100.00;98993.34;4997522;28;20266;-80
2021/03/14 00:05:48;;;;;;;1.07;0.50;;;;;;;3.92;100.00;99009.72;4996511;28;20626;-80
2021/03/14 00:08:15;;;;;;;0.70;0.40;;;;;;;3.96;100.00;99006.28;4997211;28;20257;-80
2021/03/14 00:10:43;;;;;;;0.83;0.43;;;;;;;3.98;100.00;99020.06;4998595;28;20273;-80
2021/03/14 00:13:10;;;;;;;2.93;0.90;;;;;;;4.00;100.00;99031.28;4996826;28;20269;-80
2021/03/14 00:15:35;;;;;;;0.73;0.50;;;;;;;3.89;100.00;99020.06;4997533;28;20863;-80
2021/03/14 00:18:01;;;;;;;1.53;0.70;;;;;;;3.97;100.00;99023.50;4998075;28;20341;-80
2021/03/14 00:20:26;;;;;;;2.37;0.50;;;;;;;3.85;100.00;99044.19;4999516;28;20037;-80
2021/03/14 00:22:52;;;;;;;0.80;0.50;;;;;;;3.93;100.00;99055.41;5004243;28;20141;-80
2021/03/14 00:25:17;;;;;;;3.60;0.70;;;;;;;3.90;100.00;99067.47;4997368;28;20032;-80
2021/03/14 00:27:44;;;;;;;1.07;0.50;;;;;;;3.89;100.00;99060.56;5006117;28;20022;-80
2021/03/14 00:30:14;;;;;;;1.73;0.77;;;;;;;3.81;100.00;99061.41;4998193;28;20030;-80
2021/03/14 00:32:40;;;;;;;4.73;0.60;;;;;;;3.85;100.00;99062.28;4996704;28;20273;-80
2021/03/14 00:35:16;;;;;;;2.30;0.57;;;;;;;3.85;100.00;99075.19;4998311;28;20273;-80
2021/03/14 00:37:42;;;;;;;0.37;0.37;;;;;;;3.91;100.00;99077.81;4996326;28;20277;-79
2021/03/14 00:40:08;;;;;;;3.20;0.60;;;;;;;3.85;100.00;99084.69;5003574;28;20261;-82
2021/03/14 00:42:35;;;;;;;2.20;0.60;;;;;;;3.81;100.00;99086.41;5013030;28;20055;-81
2021/03/14 00:45:01;;;;;;;1.17;0.50;;;;;;;3.83;100.00;99087.25;4998586;28;20265;-81
2021/03/14 00:47:26;;;;;;;0.83;0.50;;;;;;;3.76;100.00;99101.06;5004251;28;20311;-80
2021/03/14 00:49:52;;;;;;;0.80;0.60;;;;;;;3.72;100.00;99092.41;5005427;28;20352;-81
2021/03/14 00:52:17;;;;;;;9.13;1.37;;;;;;;3.59;100.00;99098.38;5001085;28;20029;-80
2021/03/14 00:54:43;;;;;;;2.37;0.63;;;;;;;3.65;100.00;99102.75;5000862;28;20376;-80
2021/03/14 00:57:08;;;;;;;3.00;0.90;;;;;;;3.67;100.00;99095.84;4998479;28;20026;-81
2021/03/14 00:59:34;;;;;;;0.50;0.50;;;;;;;3.62;100.00;99129.41;4997625;28;20039;-80
2021/03/14 01:01:59;;;;;;;2.73;0.67;;;;;;;3.42;100.00;99150.00;4996651;28;20415;-81
2021/03/14 01:04:25;;;;;;;2.73;0.90;;;;;;;3.32;100.00;99119.81;4994945;28;20046;-81
2021/03/14 01:06:51;;;;;;;2.30;0.70;;;;;;;3.35;100.00;99125.00;4994772;28;20030;-81
2021/03/14 01:09:16;;;;;;;1.20;0.80;;;;;;;3.39;100.00;99131.03;5003057;28;20030;-82
2021/03/14 01:11:43;;;;;;;3.50;0.80;;;;;;;3.46;100.00;99128.50;4995788;28;20050;-81
2021/03/14 01:14:08;;;;;;;1.67;0.60;;;;;;;3.50;100.00;99140.56;4995624;28;20305;-81
2021/03/14 01:16:34;;;;;;;8.47;0.70;;;;;;;3.49;100.00;99149.16;4992186;28;20065;-81
2021/03/14 01:18:59;;;;;;;2.67;0.70;;;;;;;3.53;100.00;99135.44;4993514;28;20459;-81
2021/03/14 01:21:25;;;;;;;3.70;1.93;;;;;;;3.58;100.00;99142.31;4994618;28;20109;-82
2021/03/14 01:23:50;;;;;;;3.03;1.03;;;;;;;3.60;100.00;99140.59;4996513;28;20057;-81
2021/03/14 01:26:16;;;;;;;5.87;1.83;;;;;;;3.59;100.00;99154.38;5004207;28;20077;-81
2021/03/14 01:28:42;;;;;;;1.53;0.63;;;;;;;3.66;100.00;99140.63;4994949;28;20502;-81
2021/03/14 01:31:07;;;;;;;3.63;0.70;;;;;;;3.64;100.00;99152.69;4996539;28;20031;-82
2021/03/14 01:33:33;;;;;;;1.90;0.90;;;;;;;3.68;100.00;99167.34;4995560;28;20300;-81
2021/03/14 01:35:59;;;;;;;1.10;0.60;;;;;;;3.61;100.00;99178.50;4995432;28;20022;-83
2021/03/14 01:38:24;;;;;;;1.50;0.70;;;;;;;3.48;100.00;99175.88;4996145;28;20117;-82
2021/03/14 01:40:49;;;;;;;6.10;0.90;;;;;;;3.32;100.00;99163.72;4995979;28;20030;-81
2021/03/14 01:43:15;;;;;;;3.60;0.50;;;;;;;3.24;100.00;99174.00;4998458;28;20038;-81
2021/03/14 01:45:41;;;;;;;1.27;0.50;;;;;;;3.10;100.00;99174.78;5000678;28;20132;-80
2021/03/14 01:48:07;;;;;;;1.77;0.50;;;;;;;3.00;100.00;99184.19;4996078;28;20030;-80
2021/03/14 01:50:34;;;;;;;0.40;0.40;;;;;;;2.89;100.00;99178.94;4996434;28;20030;-81
2021/03/14 01:53:00;;;;;;;0.70;0.47;;;;;;;2.81;100.00;99180.59;5001777;28;20734;-82
2021/03/14 01:55:25;;;;;;;6.63;1.13;;;;;;;2.82;100.00;99200.41;4996594;28;20285;-82
2021/03/14 01:57:52;;;;;;;1.80;0.90;;;;;;;2.86;100.00;99204.72;4996247;28;20380;-82
2021/03/14 02:00:22;;;;;;;2.93;0.60;;;;;;;2.89;100.00;99198.72;5003722;28;20030;-81
2021/03/14 02:02:48;;;;;;;1.03;0.50;;;;;;;2.88;100.00;99210.75;5026469;23;20312;-70
2021/03/14 02:05:18;;;;;;;0.93;0.50;;;;;;;2.91;100.00;99212.53;5009878;28;20363;-71
2021/03/14 02:07:46;;;;;;;1.97;0.80;;;;;;;2.94;100.00;99208.25;5019986;28;20686;-70
2021/03/14 02:10:14;;;;;;;2.73;0.70;;;;;;;3.03;100.00;99225.53;5016132;28;20351;-69
2021/03/14 02:13:13;;;;;;;1.97;0.60;;;;;;;3.17;100.00;99223.06;5014747;28;20304;-70
2021/03/14 02:15:46;;;;;;;3.10;0.60;;;;;;;3.21;100.00;99229.94;5013571;28;20292;-71
2021/03/14 02:18:13;;;;;;;2.73;0.60;;;;;;;3.25;100.00;99242.03;5008385;28;20293;-70
2021/03/14 02:20:40;;;;;;;0.83;0.50;;;;;;;3.25;100.00;99236.84;5012775;28;20269;-69
2021/03/14 02:23:27;;;;;;;1.30;0.50;;;;;;;3.18;100.00;99235.09;5015905;28;20273;-69
2021/03/14 02:26:02;;;;;;;0.57;0.53;;;;;;;3.15;100.00;99242.81;5023407;28;20741;-70
2021/03/14 02:28:27;;;;;;;1.63;0.73;;;;;;;3.19;100.00;99227.38;5015983;28;20729;-68
2021/03/14 02:30:53;;;;;;;3.60;0.80;;;;;;;3.22;100.00;99239.44;5015442;28;20304;-70
2021/03/14 02:33:22;;;;;;;0.83;0.50;;;;;;;3.25;100.00;99252.34;5014462;28;20513;-68
2021/03/14 02:35:51;;;;;;;3.30;1.23;;;;;;;3.31;100.00;99251.56;5015325;28;20285;-68
2021/03/14 02:38:18;;;;;;;2.27;0.80;;;;;;;3.29;100.00;99256.72;5020689;28;20335;-69
2021/03/14 02:40:44;;;;;;;1.13;0.63;;;;;;;3.35;100.00;99254.16;5015258;28;20280;-68
2021/03/14 02:43:10;;;;;;;4.07;0.80;;;;;;;3.36;100.00;99261.03;5015899;28;20261;-68
2021/03/14 02:45:37;;;;;;;1.47;0.60;;;;;;;3.36;100.00;99255.03;5015324;28;20721;-68
2021/03/14 02:48:05;;;;;;;2.17;0.80;;;;;;;3.41;100.00;99269.72;5015629;28;20804;-67
2021/03/14 02:50:31;;;;;;;2.33;0.70;;;;;;;3.42;100.00;99271.44;5015069;28;20304;-68
2021/03/14 02:52:58;;;;;;;4.77;0.80;;;;;;;3.49;100.00;99267.16;5015425;28;20764;-68
2021/03/14 02:55:25;;;;;;;1.97;0.83;;;;;;;3.50;100.00;99269.75;5014961;28;20296;-68
2021/03/14 02:57:51;;;;;;;1.73;0.90;;;;;;;3.54;100.00;99268.06;5015113;28;20305;-67
2021/03/14 03:00:21;;;;;;;4.13;1.10;;;;;;;3.47;100.00;99274.91;5014904;28;20536;-67
2021/03/14 03:02:50;;;;;;;3.77;1.10;;;;;;;3.56;100.00;99273.25;5017161;28;20191;-68
2021/03/14 03:05:19;;;;;;;3.97;0.90;;;;;;;3.68;100.00;99275.91;5014499;28;20277;-68
2021/03/14 03:07:51;;;;;;;3.37;0.90;;;;;;;3.82;100.00;99282.00;5015076;28;20273;-67
2021/03/14 03:10:17;;;;;;;2.43;0.97;;;;;;;4.04;100.00;99294.19;5014807;28;20334;-67
2021/03/14 03:12:47;;;;;;;3.33;1.00;;;;;;;4.14;100.00;99304.59;5015085;28;20268;-67
2021/03/14 03:15:17;;;;;;;5.87;1.20;;;;;;;4.24;100.00;99306.34;5014466;28;20273;-67
2021/03/14 03:17:44;;;;;;;4.93;1.20;;;;;;;4.28;100.00;99318.44;5014661;28;20273;-67
2021/03/14 03:20:10;;;;;;;3.87;1.13;;;;;;;4.49;100.00;99308.19;5015026;28;20732;-67
2021/03/14 03:22:37;;;;;;;2.47;1.10;;;;;;;4.44;100.00;99319.38;5014260;28;20280;-67
2021/03/14 03:25:05;;;;;;;4.83;1.07;;;;;;;4.36;100.00;99321.91;5014419;28;20280;-68
2021/03/14 03:27:30;;;;;;;3.27;1.30;;;;;;;4.32;100.00;99315.88;5014346;28;20272;-67
2021/03/14 03:29:55;;;;;;;5.53;1.17;;;;;;;4.35;100.00;99328.81;5015136;28;20265;-67
2021/03/14 03:32:21;;;;;;;4.37;1.23;;;;;;;4.31;100.00;99319.31;5015028;28;20152;-67
2021/03/14 03:34:46;;;;;;;3.23;0.87;;;;;;;4.47;100.00;99325.41;5010927;28;20091;-67
2021/03/14 03:37:12;;;;;;;4.87;1.20;;;;;;;4.35;100.00;99330.53;5026624;28;20040;-67
2021/03/14 03:39:37;;;;;;;4.07;1.17;;;;;;;4.36;100.00;99332.25;5025708;28;20041;-67
2021/03/14 03:42:15;;;;;;;5.37;1.30;;;;;;;4.42;100.00;99337.47;5022185;28;20021;-67
2021/03/14 03:44:41;;;;;;;5.53;1.50;;;;;;;4.45;100.00;99329.72;5021574;28;20040;-67
2021/03/14 03:47:10;;;;;;;7.97;1.80;;;;;;;4.46;100.00;99341.81;5016795;28;20541;-67
2021/03/14 03:49:38;;;;;;;3.60;1.40;;;;;;;4.56;100.00;99356.50;5024624;28;20590;-67
2021/03/14 03:52:04;;;;;;;7.60;1.17;;;;;;;4.57;100.00;99331.50;5023725;28;20269;-67
2021/03/14 03:54:30;;;;;;;4.90;0.90;;;;;;;4.67;100.00;99361.72;5022486;28;20279;-67
2021/03/14 03:56:57;;;;;;;2.73;1.30;;;;;;;4.66;100.00;99358.28;5018954;28;20306;-66
2021/03/14 03:59:25;;;;;;;4.60;1.70;;;;;;;4.63;100.00;99368.63;5024746;28;20264;-66
2021/03/14 04:01:53;;;;;;;4.93;1.27;;;;;;;4.59;100.00;99377.22;5029554;28;20268;-67
2021/03/14 04:04:19;;;;;;;4.07;1.13;;;;;;;4.58;100.00;99390.16;5021371;28;20347;-67
2021/03/14 04:06:48;;;;;;;4.63;1.30;;;;;;;4.59;100.00;99392.75;5025476;28;20770;-67
2021/03/14 04:09:14;;;;;;;5.77;0.87;;;;;;;4.71;100.00;99398.00;5020531;28;20271;-69
2021/03/14 04:11:41;;;;;;;8.13;1.63;;;;;;;4.69;100.00;99389.34;5017626;28;20272;-68
2021/03/14 04:14:10;;;;;;;3.73;1.30;;;;;;;4.67;100.00;99401.44;5018798;28;20280;-68
2021/03/14 04:16:38;;;;;;;4.97;1.33;;;;;;;4.76;100.00;99410.09;5014987;28;20298;-68
2021/03/14 04:19:06;;;;;;;2.83;1.30;;;;;;;4.82;100.00;99420.47;5026968;28;20272;-67
2021/03/14 04:21:33;;;;;;;6.47;1.17;;;;;;;4.83;100.00;99428.25;5026352;28;20621;-68
2021/03/14 04:24:00;;;;;;;5.87;1.03;;;;;;;4.70;100.00;99427.31;5024239;28;20272;-68
2021/03/14 04:26:26;;;;;;;3.67;1.37;;;;;;;4.83;100.00;99432.56;5022190;28;20292;-68
2021/03/14 04:28:54;;;;;;;2.20;1.23;;;;;;;4.79;100.00;99436.88;5028973;28;20275;-68
2021/03/14 04:31:21;;;;;;;9.77;1.83;;;;;;;4.72;100.00;99435.09;5025204;28;20271;-68
2021/03/14 04:33:47;;;;;;;4.43;1.53;;;;;;;4.81;100.00;99436.88;5019569;28;20831;-68
2021/03/14 04:36:14;;;;;;;5.70;1.00;;;;;;;4.83;100.00;99445.50;5025109;28;20418;-68
2021/03/14 04:38:41;;;;;;;10.73;1.87;;;;;;;4.92;100.00;99435.19;5013622;28;20261;-67
2021/03/14 04:41:07;;;;;;;3.20;1.10;;;;;;;4.80;100.00;99442.91;5014340;28;20269;-68
2021/03/14 04:43:33;;;;;;;4.97;1.00;;;;;;;4.85;100.00;99436.03;5021757;28;20264;-68
2021/03/14 04:45:59;;;;;;;6.47;1.70;;;;;;;4.82;100.00;99451.53;5021064;28;20271;-68
2021/03/14 04:48:25;;;;;;;8.43;2.27;;;;;;;4.93;100.00;99465.41;5027392;28;20279;-68
2021/03/14 04:50:53;;;;;;;6.27;1.63;;;;;;;4.86;100.00;99458.50;5017834;28;20029;-67
2021/03/14 04:53:26;;;;;;;5.53;1.43;;;;;;;4.85;100.00;99467.13;5023507;28;20044;-67
2021/03/14 04:55:53;;;;;;;12.53;2.30;;;;;;;4.79;100.00;99473.13;5025293;28;20288;-68
2021/03/14 04:58:21;;;;;;;14.50;1.80;;;;;;;4.73;100.00;99467.94;5021563;28;20755;-67
2021/03/14 05:00:48;;;;;;;6.70;1.33;;;;;;;4.75;100.00;99471.38;5012736;28;20278;-67
2021/03/14 05:03:15;;;;;;;7.27;1.77;;;;;;;4.80;100.00;99473.97;5019324;28;20311;-67
2021/03/14 05:05:43;;;;;;;3.33;1.30;;;;;;;4.77;100.00;99473.97;5023407;28;20351;-67
2021/03/14 05:08:10;;;;;;;5.90;1.30;;;;;;;4.81;100.00;99480.91;5020170;28;20300;-67
2021/03/14 05:10:38;;;;;;;6.00;1.37;;;;;;;4.79;100.00;99487.78;5025350;28;20264;-67
2021/03/14 05:13:04;;;;;;;7.97;1.43;;;;;;;4.78;100.00;99491.25;5026418;28;20355;-67
2021/03/14 05:15:30;;;;;;;5.37;1.63;;;;;;;4.71;100.00;99493.78;5021632;28;20035;-67
2021/03/14 05:17:56;;;;;;;5.63;1.47;;;;;;;4.81;100.00;99502.47;5023378;28;20279;-67
2021/03/14 05:20:22;;;;;;;9.37;1.40;;;;;;;4.79;100.00;99508.50;5019552;28;20268;-67
2021/03/14 05:22:49;;;;;;;6.73;1.30;;;;;;;4.82;100.00;99508.53;5022951;28;20030;-67
2021/03/14 05:25:17;;;;;;;8.40;1.50;;;;;;;4.81;100.00;99517.16;5023486;28;20472;-67
2021/03/14 05:27:49;;;;;;;5.70;1.53;;;;;;;4.84;100.00;99511.97;5026582;28;20268;-67
2021/03/14 05:30:23;;;;;;;8.35;1.90;;;;;;;4.85;100.00;99524.09;5005271;28;20257;-67
2021/03/14 05:32:51;;;;;;;5.17;1.30;;;;;;;4.87;100.00;99532.72;5017897;28;20083;-67
2021/03/14 05:35:19;;;;;;;6.00;1.50;;;;;;;4.88;100.00;99537.06;5022215;28;20280;-67
2021/03/14 05:37:44;;;;;;;3.87;1.00;;;;;;;4.92;100.00;99531.88;5021192;28;20276;-67
2021/03/14 05:40:10;;;;;;;8.53;2.57;;;;;;;4.94;100.00;99542.25;5011986;28;20265;-67
2021/03/14 05:42:36;;;;;;;7.07;1.93;;;;;;;4.91;100.00;99544.84;5018790;28;20099;-66
2021/03/14 05:45:02;;;;;;;6.63;1.83;;;;;;;4.92;100.00;99549.16;5017557;28;20334;-67
2021/03/14 05:47:27;;;;;;;7.17;1.23;;;;;;;4.93;100.00;99553.47;5012449;28;20097;-67
2021/03/14 05:49:53;;;;;;;6.67;1.50;;;;;;;4.88;100.00;99563.81;5030890;28;20347;-67
2021/03/14 05:52:19;;;;;;;8.87;2.07;;;;;;;4.86;100.00;99564.69;5021685;28;20022;-67
2021/03/14 05:54:46;;;;;;;3.67;1.90;;;;;;;4.88;100.00;99555.19;5025424;28;20025;-67
2021/03/14 05:57:12;;;;;;;8.73;2.30;;;;;;;4.96;100.00;99569.88;5022031;28;20292;-67
2021/03/14 05:59:39;;;;;;;6.03;1.40;;;;;;;4.98;100.00;99582.88;5016984;28;20280;-66
2021/03/14 06:02:05;;;;;;;8.70;2.20;;;;;;;4.91;100.00;99591.47;5016070;28;20125;-67
2021/03/14 06:04:31;;;;;;;4.90;2.13;;;;;;;4.95;100.00;99577.66;5024395;28;20772;-66
2021/03/14 06:06:57;;;;;;;16.13;3.23;;;;;;;4.94;100.00;99596.66;5020404;28;20394;-67
2021/03/14 06:09:23;;;;;;;2.93;1.20;;;;;;;5.01;100.00;99588.06;5025804;28;20264;-66
2021/03/14 06:11:48;;;;;;;5.47;1.83;;;;;;;4.98;100.00;99599.28;5004974;28;20022;-67
2021/03/14 06:14:14;;;;;;;8.20;1.57;;;;;;;4.99;100.00;99600.16;5018561;28;20025;-68
2021/03/14 06:16:41;;;;;;;5.37;1.80;;;;;;;4.93;100.00;99610.47;5016322;28;20104;-67
2021/03/14 06:19:06;;;;;;;12.13;1.93;;;;;;;5.00;100.00;99613.09;5030835;28;20043;-68
2021/03/14 06:21:33;;;;;;;7.13;2.00;;;;;;;4.94;100.00;99612.19;5020052;28;20364;-67
2021/03/14 06:24:01;;;;;;;13.53;2.00;;;;;;;5.06;100.00;99627.81;5021681;28;20101;-67
2021/03/14 06:26:44;;;;;;;5.03;1.20;;;;;;;5.02;100.00;99631.25;5013252;28;20261;-68
2021/03/14 06:29:18;;;;;;;3.08;1.35;;;;;;;5.03;100.00;99632.97;5024673;28;20272;-68
2021/03/14 06:31:48;;;;;;;14.63;2.50;;;;;;;5.02;100.00;99646.78;5022844;28;20061;-68
2021/03/14 06:34:27;;;;;;;6.23;1.33;;;;;;;4.99;100.00;99646.78;5019976;28;20275;-68
2021/03/14 06:36:54;;;;;;;11.30;1.83;;;;;;;4.99;100.00;99657.13;5022272;28;20324;-68
2021/03/14 06:39:22;;;;;;;12.80;2.00;;;;;;;5.07;100.00;99665.81;5014592;28;20269;-68
2021/03/14 06:41:48;;;;;;;6.97;1.67;;;;;;;5.08;100.00;99671.84;5030672;28;20745;-68
2021/03/14 06:44:28;;;;;;;8.07;2.13;;;;;;;5.10;100.00;99684.00;5020594;28;20352;-68
2021/03/14 06:46:55;;;;;;;5.90;1.53;;;;;;;5.10;100.00;99686.59;5005924;28;20018;-68
2021/03/14 06:49:23;;;;;;;8.80;1.87;;;;;;;5.13;100.00;99688.31;5024157;28;20295;-68
2021/03/14 06:51:52;;;;;;;4.30;2.00;;;;;;;5.13;100.00;99691.78;5026728;28;20264;-68
2021/03/14 06:54:33;;;;;;;7.03;1.43;;;;;;;5.19;100.00;99698.72;5015117;28;20714;-68
2021/03/14 06:57:06;;;;;;;7.20;2.10;;;;;;;5.21;100.00;99705.66;5027773;28;20288;-66
2021/03/14 06:59:42;;;;;;;5.17;1.30;;;;;;;5.26;100.00;99713.47;5019029;28;20272;-67
2021/03/14 07:02:08;;;;;;;5.83;1.63;;;;;;;5.28;100.00;99715.19;5022899;28;20133;-67
2021/03/14 07:04:42;;;;;;;8.63;1.70;;;;;;;5.31;100.00;99716.94;5018012;28;20272;-67
2021/03/14 07:07:30;;;;;;;9.63;1.70;;;;;;;5.33;100.00;99725.63;5027772;28;20269;-68
2021/03/14 07:10:07;;;;;;;6.43;1.50;;;;;;;5.44;100.00;99729.13;5017044;28;20331;-67
2021/03/14 07:12:43;;;;;;;10.73;1.40;;;;;;;5.44;100.00;99743.81;5022076;28;20322;-67
2021/03/14 07:15:16;;;;;;;10.33;1.87;;;;;;;5.53;100.00;99744.75;5019405;28;20265;-67
2021/03/14 07:17:43;;;;;;;6.90;1.87;;;;;;;5.47;100.00;99749.91;5028823;28;20268;-67
2021/03/14 07:20:16;;;;;;;3.30;1.23;;;;;;;5.48;100.00;99761.13;5025669;28;20040;-67
2021/03/14 07:22:56;;;;;;;5.37;2.07;;;;;;;5.38;100.00;99754.16;5022619;28;20277;-67
2021/03/14 07:25:22;;;;;;;3.93;1.40;;;;;;;5.41;100.00;99769.72;5015405;28;20030;-67
2021/03/14 07:27:49;;;;;;;8.33;1.50;;;;;;;5.38;100.00;99780.06;5025094;28;20264;-67
2021/03/14 07:30:17;;;;;;;3.67;1.20;;;;;;;5.37;100.00;99778.34;5023532;28;20418;-67
2021/03/14 07:32:45;;;;;;;15.33;2.33;;;;;;;5.39;100.00;99793.03;5032096;28;20732;-67
2021/03/14 07:35:11;;;;;;;6.87;1.70;;;;;;;5.36;100.00;99794.75;5029841;28;20313;-68
2021/03/14 07:37:41;;;;;;;9.93;1.83;;;;;;;5.39;100.00;99793.03;5028531;28;20276;-68
2021/03/14 07:40:08;;;;;;;11.83;1.93;;;;;;;5.37;100.00;99804.25;5019694;28;20022;-67
2021/03/14 07:42:33;;;;;;;7.60;1.53;;;;;;;5.36;100.00;99810.31;5022841;28;20264;-67
2021/03/14 07:44:59;;;;;;;6.83;1.40;;;;;;;5.39;100.00;99816.38;5024986;28;20808;-67
2021/03/14 07:47:30;;;;;;;4.80;1.63;;;;;;;5.42;100.00;99818.13;5031377;28;20022;-67
2021/03/14 07:49:56;;;;;;;5.97;1.50;;;;;;;5.57;100.00;99826.00;5022570;28;20026;-67
2021/03/14 07:52:28;;;;;;;4.20;1.40;;;;;;;5.64;100.00;99822.59;5023959;28;20304;-67
2021/03/14 07:55:06;;;;;;;6.20;1.58;;;;;;;5.77;100.00;99829.63;5027549;28;20111;-67
2021/03/14 07:57:32;;;;;;;10.37;1.30;;;;;;;5.91;100.00;99840.09;5024632;28;20026;-67
2021/03/14 08:00:18;;;;;;;7.03;1.70;;;;;;;5.77;100.00;99842.59;5025490;28;20028;-68
2021/03/14 08:02:54;;;;;;;2.80;1.43;;;;;;;5.71;100.00;99857.25;5019997;28;20135;-68
2021/03/14 08:05:40;;;;;;;4.10;1.57;;;;;;;5.69;100.00;99859.81;5016638;28;20757;-67
2021/03/14 08:08:08;;;;;;;2.60;1.37;;;;;;;5.54;100.00;99865.75;5022645;28;20462;-68
2021/03/14 08:10:34;;;;;;;6.87;1.60;;;;;;;5.52;100.00;99879.56;5017469;28;20273;-68
2021/03/14 08:13:01;;;;;;;4.80;1.10;;;;;;;5.64;100.00;99879.66;5020881;28;20344;-67
2021/03/14 08:15:28;;;;;;;4.90;1.37;;;;;;;5.65;100.00;99886.59;5013410;28;20022;-68
2021/03/14 08:17:55;;;;;;;7.93;1.67;;;;;;;5.69;100.00;99896.13;5021296;28;20264;-68
2021/03/14 08:20:44;;;;;;;8.97;1.53;;;;;;;5.58;100.00;99890.00;5010718;28;20314;-68
2021/03/14 08:23:17;;;;;;;5.27;1.93;;;;;;;5.71;100.00;99888.38;5016160;28;20264;-68
2021/03/14 08:25:44;;;;;;;5.90;1.50;;;;;;;5.78;100.00;99900.50;5016394;28;20279;-68
2021/03/14 08:28:30;;;;;;;6.40;1.30;;;;;;;5.85;100.00;99900.59;5015445;28;20359;-69
2021/03/14 08:31:04;;;;;;;5.33;1.40;;;;;;;5.99;100.00;99898.13;5018644;28;20029;-68
2021/03/14 08:33:30;;;;;;;12.03;1.80;;;;;;;5.95;100.00;99890.31;5022796;28;20464;-68
2021/03/14 08:36:04;;;;;;;7.20;1.63;;;;;;;6.33;100.00;99907.00;5028801;28;20767;-67
2021/03/14 08:38:33;;;;;;;2.50;1.33;;;;;;;6.21;100.00;99913.84;5021219;28;20022;-69
2021/03/14 08:41:24;;;;;;;4.77;1.30;;;;;;;6.57;100.00;99915.78;5018691;28;20052;-68
2021/03/14 08:44:02;;;;;;;3.33;1.03;;;;;;;6.66;100.00;99915.78;5027872;28;20037;-68
2021/03/14 08:46:45;;;;;;;3.07;1.00;;;;;;;6.78;100.00;99925.38;5020086;28;20068;-68
2021/03/14 08:49:14;;;;;;;3.77;1.20;;;;;;;7.07;100.00;99934.16;5027236;28;20528;-68
2021/03/14 08:51:40;;;;;;;2.83;1.27;;;;;;;6.78;100.00;99930.56;5013594;28;20025;-68
2021/03/14 08:54:05;;;;;;;6.57;1.40;;;;;;;6.76;100.00;99927.97;5014749;28;20048;-68
2021/03/14 08:56:33;;;;;;;4.63;1.40;;;;;;;7.33;98.40;99942.03;5017467;28;20079;-69
2021/03/14 08:59:08;;;;;;;5.07;1.67;;;;;;;6.96;100.00;99936.72;5026359;28;20022;-69
2021/03/14 09:01:33;;;;;;;3.57;1.30;;;;;;;6.98;100.00;99942.78;5013814;28;20133;-69
2021/03/14 09:04:10;;;;;;;6.10;1.60;;;;;;;8.12;97.66;99949.03;5013392;28;20088;-69
2021/03/14 09:06:35;;;;;;;4.37;1.40;;;;;;;8.30;95.32;99955.94;5012106;28;20378;-67
2021/03/14 09:09:04;;;;;;;3.47;1.50;;;;;;;8.41;92.36;99955.09;5016183;28;20033;-68
2021/03/14 09:11:48;;;;;;;7.00;1.67;;;;;;;8.25;92.71;99960.31;5024263;28;20101;-67
2021/03/14 09:14:33;;;;;;;2.67;1.43;;;;;;;8.27;91.96;99955.97;5015243;28;20030;-67
2021/03/14 09:17:00;;;;;;;4.40;1.30;;;;;;;7.19;95.03;99964.53;5025248;28;20079;-68
2021/03/14 09:19:28;;;;;;;3.97;1.40;;;;;;;7.22;97.39;99964.53;5023942;28;20025;-68
2021/03/14 09:21:56;;;;;;;3.47;1.33;;;;;;;7.08;97.75;99971.44;5014297;28;20028;-68
2021/03/14 09:24:27;;;;;;;5.17;1.60;;;;;;;7.19;99.28;99974.94;5019552;28;20112;-68
2021/03/14 09:27:00;;;;;;;6.17;1.40;;;;;;;6.76;97.81;99965.22;5012547;28;20099;-68
2021/03/14 09:29:37;;;;;;;6.37;1.47;;;;;;;7.01;97.97;99976.59;5017988;28;20025;-68
2021/03/14 09:32:12;;;;;;;4.77;1.20;;;;;;;7.09;97.87;99983.56;5022866;28;20022;-68
2021/03/14 09:34:38;;;;;;;5.03;1.40;;;;;;;7.37;96.96;99990.56;5021139;28;20029;-68
2021/03/14 09:37:03;;;;;;;6.27;1.40;;;;;;;7.86;96.07;99988.94;5025134;28;20393;-68
2021/03/14 09:39:28;;;;;;;7.80;1.50;;;;;;;7.45;95.35;100001.88;5025978;28;20029;-67
2021/03/14 09:41:54;;;;;;;5.47;1.30;;;;;;;7.47;94.18;99997.53;5029101;28;20425;-67
2021/03/14 09:44:20;;;;;;;4.13;1.07;;;;;;;7.42;94.33;99993.22;5022668;28;20026;-69
2021/03/14 09:47:11;;;;;;;4.47;1.30;;;;;;;7.57;95.42;100003.66;5011958;28;20021;-69
2021/03/14 09:49:37;;;;;;;5.13;1.23;;;;;;;7.37;96.66;100006.19;5010032;28;20383;-69
2021/03/14 09:52:02;;;;;;;5.77;1.83;;;;;;;7.27;94.68;100007.03;5021859;28;20025;-69
2021/03/14 09:54:28;;;;;;;2.60;1.10;;;;;;;7.26;95.60;100007.88;5023670;28;20029;-69
2021/03/14 09:56:55;;;;;;;5.43;1.77;;;;;;;7.22;95.85;100016.53;5016716;28;20025;-68
2021/03/14 09:59:27;;;;;;;3.77;1.07;;;;;;;7.14;95.01;100013.03;5020097;28;20022;-68
2021/03/14 10:01:56;;;;;;;3.78;1.00;;;;;;;7.31;94.68;100016.59;5018893;28;20022;-68
2021/03/14 10:04:21;;;;;;;5.93;1.27;;;;;;;7.42;94.43;100024.44;5011976;28;20458;-68
2021/03/14 10:06:47;;;;;;;5.80;1.20;;;;;;;7.44;95.91;100018.34;5025455;28;20064;-68
2021/03/14 10:09:21;;;;;;;2.67;1.10;;;;;;;7.50;94.10;100028.75;5016270;28;20052;-68
2021/03/14 10:11:47;;;;;;;3.23;1.40;;;;;;;7.26;93.47;100039.94;5017013;28;20096;-68
2021/03/14 10:14:15;;;;;;;3.00;0.90;;;;;;;7.11;95.16;100032.09;5006319;28;20026;-68
2021/03/14 10:16:42;;;;;;;8.43;1.77;;;;;;;7.05;93.88;100035.53;5022015;28;20401;-68
2021/03/14 10:19:07;;;;;;;3.97;1.30;;;;;;;7.55;93.86;100034.88;5013432;28;20033;-68
2021/03/14 10:21:33;;;;;;;2.93;1.10;;;;;;;7.84;91.77;100034.91;5019257;28;20113;-68
2021/03/14 10:24:44;;;;;;;2.03;0.90;;;;;;;7.99;90.16;100041.88;5012345;28;20018;-68
2021/03/14 10:27:10;;;;;;;4.70;1.47;;;;;;;8.17;89.72;100054.06;4977136;28;20085;-69
2021/03/14 10:29:40;;;;;;;2.90;1.00;;;;;;;8.70;86.49;100047.97;4974710;28;20031;-68
2021/03/14 10:32:22;;;;;;;6.10;1.40;;;;;;;8.81;86.54;100060.13;4996583;28;20036;-69
2021/03/14 10:34:53;;;;;;;2.15;1.05;;;;;;;8.65;87.04;100058.44;5018640;28;20065;-68
2021/03/14 10:37:33;;;;;;;1.90;1.00;;;;;;;8.23;88.63;100056.66;5024566;28;20116;-68
2021/03/14 10:40:04;;;;;;;4.27;1.20;;;;;;;7.94;88.58;100064.44;5023317;28;20030;-68
2021/03/14 10:42:35;;;;;;;6.07;0.95;;;;;;;8.07;88.87;100066.19;5015253;28;20080;-68
2021/03/14 10:45:08;;;;;;;5.30;1.80;;;;;;;8.31;89.23;100067.09;5014469;28;20030;-69
2021/03/14 10:47:33;;;;;;;6.20;1.03;;;;;;;8.23;86.80;100070.53;5020214;28;20022;-68
2021/03/14 10:50:14;;;;;;;3.37;0.73;;;;;;;7.98;83.57;100078.31;5028458;28;20030;-68
2021/03/14 10:52:40;;;;;;;5.33;1.00;;;;;;;8.05;84.67;100075.75;5012038;28;20048;-69
2021/03/14 10:55:30;;;;;;;4.97;1.00;;;;;;;8.44;82.42;100077.53;5026619;28;20108;-69
2021/03/14 10:58:09;;;;;;;2.70;0.90;;;;;;;8.69;83.04;100070.56;5025803;28;20500;-69
2021/03/14 11:00:36;;;;;;;3.53;1.00;;;;;;;8.54;85.45;100075.81;5018984;28;20022;-69
2021/03/14 11:03:11;;;;;;;2.13;0.80;;;;;;;8.26;85.24;100068.84;5021886;28;20037;-69
2021/03/14 11:05:38;;;;;;;2.50;1.10;;;;;;;8.12;87.88;100069.69;5022329;28;20041;-69
2021/03/14 11:08:04;;;;;;;4.67;0.90;;;;;;;8.16;84.68;100068.81;5024960;28;20033;-69
2021/03/14 11:10:30;;;;;;;3.73;1.33;;;;;;;8.37;84.52;100080.16;5020267;28;20037;-69
2021/03/14 11:12:55;;;;;;;7.13;1.20;;;;;;;8.32;83.75;100074.03;5020999;28;20471;-68
2021/03/14 11:15:31;;;;;;;4.40;1.60;;;;;;;8.28;81.92;100077.50;5024390;28;20061;-68
2021/03/14 11:17:58;;;;;;;3.03;0.80;;;;;;;8.28;81.99;100080.13;5029765;28;20029;-68
2021/03/14 11:20:27;;;;;;;2.57;0.90;;;;;;;8.42;81.59;100081.03;5021773;28;20048;-68
2021/03/14 11:22:54;;;;;;;4.60;1.00;;;;;;;8.52;81.02;100073.22;5025077;28;20037;-69
2021/03/14 11:25:20;;;;;;;3.57;1.47;;;;;;;8.66;81.93;100081.00;5027761;28;20022;-68
2021/03/14 11:27:47;;;;;;;3.03;0.80;;;;;;;7.89;80.18;100076.59;5022267;28;20109;-68
2021/03/14 11:30:18;;;;;;;5.47;1.17;;;;;;;7.82;82.42;100078.31;5022908;28;20104;-68
2021/03/14 11:32:43;;;;;;;3.67;0.97;;;;;;;8.59;84.25;100074.06;5027753;28;20026;-69
2021/03/14 11:35:10;;;;;;;3.60;0.93;;;;;;;8.93;81.52;100087.06;5025207;28;20032;-69
2021/03/14 11:37:36;;;;;;;1.63;0.60;;;;;;;9.12;80.33;100080.94;5022041;28;20463;-69
2021/03/14 11:40:04;;;;;;;2.27;0.80;;;;;;;9.79;77.79;100075.44;5026034;28;20053;-69
2021/03/14 11:42:29;;;;;;;4.70;0.90;;;;;;;9.60;77.66;100085.13;5018265;28;20021;-69